createdAt,value
2018-12-21T00:00:10.112Z,100.42
2018-12-21T00:00:41.256Z,103.78
2018-12-21T00:01:12.368Z,98.10
2018-12-21T00:01:43.485Z,101.22
2018-12-21T00:02:14.597Z,100.42
2018-12-21T00:02:45.701Z,101.35
2018-12-21T00:03:16.801Z,95.90
2018-12-21T00:03:47.913Z,103.90
2018-12-21T00:04:19.040Z,101.87
2018-12-21T00:04:50.160Z,103.00
2018-12-21T00:05:21.270Z,99.62
2018-12-21T00:05:52.468Z,97.27
2018-12-21T00:06:23.591Z,97.27
2018-12-21T00:06:54.709Z,98.30
2018-12-21T00:07:25.818Z,98.92
2018-12-21T00:07:58.707Z,104.40
2018-12-21T00:08:30.058Z,101.18
2018-12-21T00:09:01.162Z,100.50
2018-12-21T00:09:32.260Z,92.08
2018-12-21T00:10:03.365Z,90.47
2018-12-21T00:10:34.463Z,97.88
2018-12-21T00:11:05.605Z,96.72
2018-12-21T00:11:36.718Z,92.37
2018-12-21T00:12:07.817Z,96.87
2018-12-21T00:12:38.967Z,94.90
2018-12-21T00:13:10.072Z,92.22
2018-12-21T00:13:41.175Z,94.47
2018-12-21T00:14:12.276Z,93.10
2018-12-21T00:14:43.415Z,90.85
2018-12-21T00:15:14.517Z,96.53
2018-12-21T00:15:45.638Z,95.45
2018-12-21T00:16:16.736Z,89.40
2018-12-21T00:16:47.840Z,96.78
2018-12-21T00:17:18.956Z,89.72
2018-12-21T00:17:50.056Z,92.60
2018-12-21T00:18:21.166Z,91.47
2018-12-21T00:18:52.272Z,96.00
2018-12-21T00:19:23.372Z,87.40
2018-12-21T00:19:54.484Z,99.72
2018-12-21T00:20:25.588Z,85.15
2018-12-21T00:20:56.728Z,91.63
2018-12-21T00:21:27.861Z,91.32
2018-12-21T00:21:58.974Z,84.37
2018-12-21T00:22:30.078Z,90.00
2018-12-21T00:23:01.229Z,89.20
2018-12-21T00:23:32.344Z,90.40
2018-12-21T00:24:03.450Z,92.22
2018-12-21T00:24:34.563Z,88.07
2018-12-21T00:25:05.678Z,90.85
2018-12-21T00:25:36.781Z,91.65
2018-12-21T00:26:07.893Z,94.30
2018-12-21T00:26:39.009Z,91.47
2018-12-21T00:27:10.138Z,93.35
2018-12-21T00:27:41.243Z,92.88
2018-12-21T00:28:12.447Z,97.40
2018-12-21T00:28:43.587Z,95.60
2018-12-21T00:29:14.684Z,89.90
2018-12-21T00:29:45.790Z,91.32
2018-12-21T00:30:16.957Z,95.25
2018-12-21T00:30:48.073Z,88.12
2018-12-21T00:31:19.245Z,88.15
2018-12-21T00:31:50.358Z,89.90
2018-12-21T00:32:21.505Z,87.55
2018-12-21T00:32:52.630Z,90.55
2018-12-21T00:33:23.788Z,95.92
2018-12-21T00:33:54.898Z,85.47
2018-12-21T00:34:26.012Z,93.65
2018-12-21T00:34:57.125Z,86.30
2018-12-21T00:35:28.253Z,87.57
2018-12-21T00:35:59.361Z,84.40
2018-12-21T00:36:30.503Z,88.27
2018-12-21T00:37:01.608Z,88.92
2018-12-21T00:37:32.800Z,81.32
2018-12-21T00:38:05.659Z,91.87
2018-12-21T00:38:37.013Z,91.60
2018-12-21T00:39:08.154Z,90.95
2018-12-21T00:39:39.278Z,94.32
2018-12-21T00:40:10.384Z,92.08
2018-12-21T00:40:41.497Z,92.75
2018-12-21T00:41:12.610Z,90.22
2018-12-21T00:41:43.756Z,96.08
2018-12-21T00:42:14.864Z,87.12
2018-12-21T00:42:46.093Z,91.50
2018-12-21T00:43:17.208Z,95.87
2018-12-21T00:43:48.322Z,90.60
2018-12-21T00:44:19.428Z,97.85
2018-12-21T00:44:50.787Z,94.20
2018-12-21T00:45:21.965Z,95.42
2018-12-21T00:45:53.072Z,91.28
2018-12-21T00:46:24.185Z,94.87
2018-12-21T00:46:55.336Z,85.28
2018-12-21T00:47:26.458Z,94.52
2018-12-21T00:47:57.598Z,94.83
2018-12-21T00:48:28.718Z,92.88
2018-12-21T00:48:59.824Z,97.33
2018-12-21T00:49:30.921Z,94.30
2018-12-21T00:50:02.048Z,94.75
2018-12-21T00:50:33.230Z,93.87
2018-12-21T00:51:04.328Z,100.50
2018-12-21T00:51:35.438Z,96.97
2018-12-21T00:52:06.540Z,91.60
2018-12-21T00:52:37.708Z,90.90
2018-12-21T00:53:08.842Z,96.45
2018-12-21T00:53:39.944Z,99.28
2018-12-21T00:54:11.064Z,97.33
2018-12-21T00:54:42.164Z,101.18
2018-12-21T00:55:13.260Z,95.92
2018-12-21T00:55:44.421Z,97.30
2018-12-21T00:56:15.528Z,95.72
2018-12-21T00:56:46.641Z,94.62
2018-12-21T00:57:17.745Z,99.75
2018-12-21T00:57:48.958Z,99.52
2018-12-21T00:58:20.071Z,93.82
2018-12-21T00:58:51.183Z,96.25
2018-12-21T00:59:22.295Z,103.58
2018-12-21T00:59:53.396Z,98.05
2018-12-21T01:00:24.505Z,102.70
2018-12-21T01:00:55.645Z,97.17
2018-12-21T01:01:26.788Z,102.80
2018-12-21T01:01:57.891Z,98.47
2018-12-21T01:02:28.995Z,99.03
2018-12-21T01:03:00.102Z,95.72
2018-12-21T01:03:31.210Z,91.22
2018-12-21T01:04:02.337Z,93.30
2018-12-21T01:04:33.441Z,89.83
2018-12-21T01:05:04.548Z,92.70
2018-12-21T01:05:35.660Z,95.05
2018-12-21T01:06:06.778Z,93.27
2018-12-21T01:06:37.913Z,91.50
2018-12-21T01:07:09.018Z,96.72
2018-12-21T01:07:40.119Z,95.60
2018-12-21T01:08:11.224Z,89.60
2018-12-21T01:08:42.325Z,92.12
2018-12-21T01:09:13.454Z,95.97
2018-12-21T01:09:44.568Z,95.10
2018-12-21T01:10:15.780Z,94.22
2018-12-21T01:10:46.903Z,92.70
2018-12-21T01:11:18.009Z,94.92
2018-12-21T01:11:49.116Z,91.12
2018-12-21T01:12:20.346Z,87.15
2018-12-21T01:12:51.467Z,90.20
2018-12-21T01:13:22.582Z,101.10
2018-12-21T01:13:53.700Z,94.83
2018-12-21T01:14:24.806Z,85.53
2018-12-21T01:14:55.925Z,97.60
2018-12-21T01:15:27.070Z,94.45
2018-12-21T01:15:58.171Z,91.30
2018-12-21T01:16:29.313Z,94.28
2018-12-21T01:17:00.419Z,96.42
2018-12-21T01:17:31.730Z,91.55
2018-12-21T01:18:02.844Z,86.28
2018-12-21T01:18:33.951Z,92.45
2018-12-21T01:19:05.060Z,89.50
2018-12-21T01:19:36.184Z,90.42
2018-12-21T01:20:07.379Z,92.62
2018-12-21T01:20:38.557Z,84.03
2018-12-21T01:21:09.745Z,88.05
2018-12-21T01:21:40.856Z,83.47
2018-12-21T01:22:12.016Z,91.53
2018-12-21T01:22:43.129Z,86.42
2018-12-21T01:23:14.260Z,88.80
2018-12-21T01:23:45.388Z,89.30
2018-12-21T01:24:16.493Z,92.53
2018-12-21T01:24:47.642Z,88.92
2018-12-21T01:25:18.796Z,92.20
2018-12-21T01:25:49.941Z,88.65
2018-12-21T01:26:21.064Z,89.92
2018-12-21T01:26:52.184Z,81.42
2018-12-21T01:27:23.313Z,82.92
2018-12-21T01:27:54.471Z,83.20
2018-12-21T01:28:25.570Z,85.80
2018-12-21T01:28:56.714Z,84.72
2018-12-21T01:29:27.881Z,86.42
2018-12-21T01:29:58.992Z,81.30
2018-12-21T01:30:30.096Z,83.70
2018-12-21T01:31:01.205Z,82.53
2018-12-21T01:31:32.355Z,81.02
2018-12-21T01:32:03.455Z,82.92
2018-12-21T01:32:34.560Z,85.15
2018-12-21T01:33:05.666Z,81.10
2018-12-21T01:33:36.781Z,78.90
2018-12-21T01:34:07.950Z,84.90
2018-12-21T01:34:39.069Z,86.47
2018-12-21T01:35:10.261Z,83.67
2018-12-21T01:35:41.376Z,81.50
2018-12-21T01:36:12.591Z,92.37
2018-12-21T01:36:43.717Z,85.65
2018-12-21T01:37:14.900Z,84.50
2018-12-21T01:37:46.004Z,92.33
2018-12-21T01:38:17.109Z,91.42
2018-12-21T01:38:48.208Z,87.17
2018-12-21T01:39:19.309Z,85.10
2018-12-21T01:39:50.444Z,93.45
2018-12-21T01:40:21.556Z,94.62
2018-12-21T01:40:52.655Z,87.65
2018-12-21T01:41:23.759Z,97.15
2018-12-21T01:41:54.869Z,92.85
2018-12-21T01:42:25.963Z,93.15
2018-12-21T01:42:57.079Z,98.25
2018-12-21T01:43:28.208Z,93.05
2018-12-21T01:43:59.299Z,90.65
2018-12-21T01:44:30.433Z,96.30
2018-12-21T01:45:01.527Z,96.53
2018-12-21T01:45:32.631Z,98.05
2018-12-21T01:46:03.735Z,91.30
2018-12-21T01:46:34.848Z,89.58
2018-12-21T01:47:05.948Z,93.82
2018-12-21T01:47:37.075Z,102.50
2018-12-21T01:48:08.172Z,93.40
2018-12-21T01:48:39.281Z,101.20
2018-12-21T01:49:10.440Z,91.63
2018-12-21T01:49:41.546Z,91.72
2018-12-21T01:50:12.656Z,94.28
2018-12-21T01:50:43.766Z,97.10
2018-12-21T01:51:14.999Z,96.08
2018-12-21T01:51:47.162Z,102.58
2018-12-21T01:52:18.689Z,101.50
2018-12-21T01:52:49.806Z,103.65
2018-12-21T01:53:20.918Z,100.72
2018-12-21T01:53:52.029Z,91.92
2018-12-21T01:54:23.139Z,94.50
2018-12-21T01:54:54.257Z,101.27
2018-12-21T01:55:25.394Z,97.65
2018-12-21T01:55:56.509Z,95.87
2018-12-21T01:56:27.613Z,97.92
2018-12-21T01:56:58.779Z,93.52
2018-12-21T01:57:29.902Z,93.40
2018-12-21T01:58:01.047Z,96.05
2018-12-21T01:58:32.143Z,94.97
2018-12-21T01:59:03.285Z,96.50
2018-12-21T01:59:34.393Z,92.78
2018-12-21T02:00:05.504Z,99.47
2018-12-21T02:00:36.621Z,97.10
2018-12-21T02:01:07.721Z,100.40
2018-12-21T02:01:38.826Z,93.37
2018-12-21T02:02:09.971Z,95.03
2018-12-21T02:02:41.075Z,84.83
2018-12-21T02:03:12.180Z,84.95
2018-12-21T02:03:43.281Z,86.70
2018-12-21T02:04:14.414Z,90.10
2018-12-21T02:04:45.538Z,79.80
2018-12-21T02:05:16.642Z,93.42
2018-12-21T02:05:47.750Z,94.28
2018-12-21T02:06:18.853Z,91.00
2018-12-21T02:06:49.996Z,92.67
2018-12-21T02:07:21.108Z,90.62
2018-12-21T02:07:52.212Z,91.02
2018-12-21T02:08:23.317Z,89.47
2018-12-21T02:08:54.456Z,97.22
2018-12-21T02:09:25.560Z,91.63
2018-12-21T02:09:56.670Z,94.77
2018-12-21T02:10:27.774Z,94.47
2018-12-21T02:10:58.913Z,90.92
2018-12-21T02:11:30.044Z,88.12
2018-12-21T02:12:01.149Z,88.07
2018-12-21T02:12:32.284Z,93.75
2018-12-21T02:13:03.428Z,87.20
2018-12-21T02:13:34.624Z,86.95
2018-12-21T02:14:05.726Z,91.55
2018-12-21T02:14:36.837Z,87.65
2018-12-21T02:15:07.941Z,98.60
2018-12-21T02:15:39.083Z,103.25
2018-12-21T02:16:10.185Z,99.20
2018-12-21T02:16:41.325Z,92.70
2018-12-21T02:17:12.429Z,94.40
2018-12-21T02:17:43.539Z,89.58
2018-12-21T02:18:14.669Z,95.95
2018-12-21T02:18:45.780Z,98.03
2018-12-21T02:19:16.902Z,104.65
2018-12-21T02:19:48.046Z,99.80
2018-12-21T02:20:19.154Z,98.50
2018-12-21T02:20:50.253Z,99.83
2018-12-21T02:21:21.396Z,135.97
2018-12-21T02:21:55.982Z,103.95
2018-12-21T02:22:25.668Z,105.12
2018-12-21T02:22:56.770Z,99.47
2018-12-21T02:23:27.876Z,93.90
2018-12-21T02:23:58.988Z,97.60
2018-12-21T02:24:30.094Z,97.40
2018-12-21T02:25:01.203Z,100.90
2018-12-21T02:25:32.346Z,105.37
2018-12-21T02:26:03.506Z,91.47
2018-12-21T02:26:34.708Z,91.90
2018-12-21T02:27:05.825Z,101.92
2018-12-21T02:27:36.927Z,93.60
2018-12-21T02:28:08.032Z,91.30
2018-12-21T02:28:39.163Z,96.40
2018-12-21T02:29:10.279Z,96.50
2018-12-21T02:29:41.382Z,97.90
2018-12-21T02:30:12.493Z,91.55
2018-12-21T02:30:43.603Z,87.67
2018-12-21T02:31:14.722Z,83.60
2018-12-21T02:31:45.854Z,83.55
2018-12-21T02:32:16.984Z,88.97
2018-12-21T02:32:48.214Z,81.12
2018-12-21T02:33:19.353Z,92.53
2018-12-21T02:33:50.474Z,91.85
2018-12-21T02:34:21.633Z,90.00
2018-12-21T02:34:52.757Z,90.92
2018-12-21T02:35:23.864Z,87.95
2018-12-21T02:35:54.969Z,90.50
2018-12-21T02:36:26.090Z,91.17
2018-12-21T02:36:57.205Z,93.67
2018-12-21T02:37:28.328Z,93.30
2018-12-21T02:37:59.437Z,96.28
2018-12-21T02:38:30.580Z,95.38
2018-12-21T02:39:01.695Z,88.03
2018-12-21T02:39:32.829Z,92.97
2018-12-21T02:40:03.988Z,90.42
2018-12-21T02:40:35.114Z,93.75
2018-12-21T02:41:06.301Z,91.95
2018-12-21T02:41:38.376Z,95.65
2018-12-21T02:42:09.526Z,93.90
2018-12-21T02:42:40.762Z,98.20
2018-12-21T02:43:11.882Z,89.80
2018-12-21T02:43:42.993Z,100.07
2018-12-21T02:44:14.099Z,91.08
2018-12-21T02:44:45.258Z,92.50
2018-12-21T02:45:17.557Z,97.12
2018-12-21T02:45:48.675Z,86.80
2018-12-21T02:46:19.789Z,86.82
2018-12-21T02:46:50.899Z,87.97
2018-12-21T02:47:22.014Z,95.38
2018-12-21T02:47:53.126Z,92.82
2018-12-21T02:48:24.234Z,93.75
2018-12-21T02:48:55.348Z,88.52
2018-12-21T02:49:26.472Z,92.67
2018-12-21T02:49:57.597Z,90.20
2018-12-21T02:50:28.744Z,92.40
2018-12-21T02:50:59.904Z,92.88
2018-12-21T02:51:31.003Z,94.20
2018-12-21T02:52:05.696Z,99.80
2018-12-21T02:52:35.299Z,87.67
2018-12-21T02:53:06.417Z,91.90
2018-12-21T02:53:37.529Z,94.42
2018-12-21T02:54:08.643Z,93.90
2018-12-21T02:54:39.776Z,93.95
2018-12-21T02:55:10.991Z,96.40
2018-12-21T02:55:42.149Z,97.33
2018-12-21T02:56:13.259Z,94.03
2018-12-21T02:56:44.368Z,99.65
2018-12-21T02:57:15.497Z,95.40
2018-12-21T02:57:46.606Z,94.92
2018-12-21T02:58:17.721Z,92.47
2018-12-21T02:58:48.836Z,95.60
2018-12-21T02:59:19.955Z,87.90
2018-12-21T02:59:51.075Z,90.28
2018-12-21T03:00:22.240Z,86.75
2018-12-21T03:00:53.356Z,93.20
2018-12-21T03:01:24.462Z,90.45
2018-12-21T03:01:55.587Z,90.47
2018-12-21T03:02:26.693Z,94.55
2018-12-21T03:02:57.804Z,89.00
2018-12-21T03:03:28.911Z,88.52
2018-12-21T03:04:00.017Z,81.78
2018-12-21T03:04:31.134Z,85.57
2018-12-21T03:05:02.244Z,95.83
2018-12-21T03:05:33.378Z,97.78
2018-12-21T03:06:04.489Z,88.80
2018-12-21T03:06:35.614Z,87.08
2018-12-21T03:07:06.734Z,88.05
2018-12-21T03:07:37.852Z,85.87
2018-12-21T03:08:08.972Z,82.65
2018-12-21T03:08:40.086Z,84.25
2018-12-21T03:09:11.210Z,83.82
2018-12-21T03:09:42.341Z,81.92
2018-12-21T03:10:13.464Z,80.57
2018-12-21T03:10:44.602Z,83.17
2018-12-21T03:11:54.341Z,85.25
2018-12-21T03:12:25.454Z,86.53
2018-12-21T03:12:56.572Z,80.40
2018-12-21T03:13:27.695Z,83.80
2018-12-21T03:13:58.848Z,81.05
2018-12-21T03:14:29.960Z,86.55
2018-12-21T03:15:01.067Z,90.72
2018-12-21T03:15:32.209Z,91.70
2018-12-21T03:16:03.324Z,86.47
2018-12-21T03:16:34.447Z,85.35
2018-12-21T03:17:05.559Z,87.25
2018-12-21T03:17:36.674Z,90.32
2018-12-21T03:18:07.782Z,89.17
2018-12-21T03:18:38.902Z,90.95
2018-12-21T03:19:10.009Z,85.05
2018-12-21T03:19:41.128Z,85.97
2018-12-21T03:20:12.256Z,87.30
2018-12-21T03:20:43.410Z,90.22
2018-12-21T03:21:14.512Z,87.80
2018-12-21T03:21:45.683Z,86.00
2018-12-21T03:22:16.786Z,88.92
2018-12-21T03:22:47.914Z,90.22
2018-12-21T03:23:19.029Z,98.90
2018-12-21T03:23:50.271Z,98.65
2018-12-21T03:24:21.390Z,94.90
2018-12-21T03:24:52.564Z,94.90
2018-12-21T03:25:23.686Z,92.67
2018-12-21T03:25:54.820Z,91.90
2018-12-21T03:26:25.991Z,93.80
2018-12-21T03:26:57.147Z,92.88
2018-12-21T03:27:28.356Z,94.28
2018-12-21T03:27:59.468Z,92.00
2018-12-21T03:28:30.645Z,92.37
2018-12-21T03:29:01.751Z,92.78
2018-12-21T03:29:32.944Z,94.67
2018-12-21T03:30:04.210Z,93.78
2018-12-21T03:30:35.301Z,91.28
2018-12-21T03:31:06.410Z,89.15
2018-12-21T03:31:37.566Z,89.87
2018-12-21T03:32:08.680Z,89.55
2018-12-21T03:32:39.796Z,93.07
2018-12-21T03:33:10.897Z,96.72
2018-12-21T03:33:42.019Z,92.65
2018-12-21T03:34:13.150Z,97.08
2018-12-21T03:34:44.294Z,90.85
2018-12-21T03:35:15.421Z,88.35
2018-12-21T03:35:46.544Z,92.25
2018-12-21T03:36:17.661Z,95.75
2018-12-21T03:36:48.780Z,89.45
2018-12-21T03:37:19.937Z,95.87
2018-12-21T03:37:51.087Z,93.85
2018-12-21T03:38:22.193Z,93.40
2018-12-21T03:38:53.332Z,95.77
2018-12-21T03:39:24.429Z,96.10
2018-12-21T03:39:55.542Z,107.37
2018-12-21T03:40:26.645Z,97.35
2018-12-21T03:40:57.752Z,104.78
2018-12-21T03:41:28.868Z,94.25
2018-12-21T03:42:00.015Z,102.97
2018-12-21T03:42:31.129Z,99.07
2018-12-21T03:43:02.284Z,95.50
2018-12-21T03:43:33.397Z,96.37
2018-12-21T03:44:04.539Z,91.25
2018-12-21T03:44:35.656Z,101.00
2018-12-21T03:45:06.808Z,92.33
2018-12-21T03:45:37.933Z,96.60
2018-12-21T03:46:09.038Z,99.42
2018-12-21T03:46:40.153Z,92.45
2018-12-21T03:47:11.261Z,102.40
2018-12-21T03:47:42.433Z,102.78
2018-12-21T03:48:13.536Z,105.80
2018-12-21T03:48:44.683Z,99.03
2018-12-21T03:49:15.834Z,101.67
2018-12-21T03:49:50.083Z,96.92
2018-12-21T03:50:21.190Z,99.20
2018-12-21T03:50:52.299Z,104.97
2018-12-21T03:51:23.408Z,104.80
2018-12-21T03:51:54.531Z,97.10
2018-12-21T03:52:25.674Z,100.92
2018-12-21T03:52:56.780Z,105.65
2018-12-21T03:53:27.883Z,98.70
2018-12-21T03:53:59.005Z,103.70
2018-12-21T03:54:30.119Z,107.40
2018-12-21T03:55:01.224Z,104.03
2018-12-21T03:55:32.361Z,101.35
2018-12-21T03:56:03.465Z,115.32
2018-12-21T03:56:34.603Z,110.70
2018-12-21T03:57:05.722Z,111.88
2018-12-21T03:57:36.837Z,112.95
2018-12-21T03:58:07.945Z,110.95
2018-12-21T03:58:39.094Z,109.00
2018-12-21T03:59:11.178Z,106.60
2018-12-21T03:59:43.335Z,105.12
2018-12-21T04:00:14.486Z,105.00
2018-12-21T04:00:45.664Z,110.40
2018-12-21T04:01:16.782Z,102.75
2018-12-21T04:01:47.897Z,110.42
2018-12-21T04:02:20.895Z,106.55
2018-12-21T04:02:52.340Z,110.48
2018-12-21T04:03:23.446Z,99.40
2018-12-21T04:03:54.600Z,110.55
2018-12-21T04:04:25.707Z,112.90
2018-12-21T04:04:56.818Z,110.10
2018-12-21T04:05:27.941Z,117.53
2018-12-21T04:05:59.050Z,113.17
2018-12-21T04:06:30.161Z,113.77
2018-12-21T04:07:01.288Z,121.80
2018-12-21T04:07:32.399Z,114.88
2018-12-21T04:08:03.502Z,126.15
2018-12-21T04:08:34.641Z,107.43
2018-12-21T04:09:05.969Z,115.15
2018-12-21T04:09:37.089Z,122.07
2018-12-21T04:10:08.209Z,118.22
2018-12-21T04:10:39.325Z,122.15
2018-12-21T04:11:10.446Z,112.40
2018-12-21T04:11:41.578Z,118.13
2018-12-21T04:12:12.810Z,116.45
2018-12-21T04:12:43.938Z,122.67
2018-12-21T04:13:15.049Z,112.88
2018-12-21T04:13:46.176Z,118.28
2018-12-21T04:14:17.342Z,117.28
2018-12-21T04:14:48.457Z,119.33
2018-12-21T04:15:19.590Z,106.97
2018-12-21T04:15:50.701Z,125.90
2018-12-21T04:16:21.839Z,118.85
2018-12-21T04:16:52.960Z,119.50
2018-12-21T04:17:24.068Z,119.22
2018-12-21T04:17:55.191Z,120.05
2018-12-21T04:18:26.344Z,121.57
2018-12-21T04:18:57.472Z,120.92
2018-12-21T04:19:28.612Z,116.08
2018-12-21T04:19:59.722Z,118.47
2018-12-21T04:20:30.886Z,121.35
2018-12-21T04:21:02.109Z,125.50
2018-12-21T04:21:33.259Z,116.45
2018-12-21T04:22:04.366Z,121.72
2018-12-21T04:22:35.477Z,121.82
2018-12-21T04:23:06.578Z,122.37
2018-12-21T04:23:37.695Z,113.20
2018-12-21T04:24:08.807Z,117.20
2018-12-21T04:24:39.911Z,117.60
2018-12-21T04:25:11.025Z,122.17
2018-12-21T04:25:42.185Z,116.22
2018-12-21T04:26:13.298Z,116.47
2018-12-21T04:26:44.416Z,119.90
2018-12-21T04:27:15.529Z,121.42
2018-12-21T04:27:46.648Z,120.33
2018-12-21T04:28:17.817Z,116.82
2018-12-21T04:28:48.920Z,116.15
2018-12-21T04:29:20.041Z,111.60
2018-12-21T04:29:51.159Z,116.40
2018-12-21T04:30:22.266Z,112.17
2018-12-21T04:30:54.549Z,117.28
2018-12-21T04:31:25.692Z,116.62
2018-12-21T04:31:56.828Z,111.60
2018-12-21T04:32:27.935Z,113.92
2018-12-21T04:32:59.044Z,116.97
2018-12-21T04:33:30.164Z,124.18
2018-12-21T04:34:01.283Z,123.58
2018-12-21T04:34:32.409Z,118.47
2018-12-21T04:35:03.544Z,123.25
2018-12-21T04:35:34.814Z,125.22
2018-12-21T04:36:05.975Z,117.10
2018-12-21T04:36:37.216Z,125.18
2018-12-21T04:37:08.332Z,119.80
2018-12-21T04:37:39.476Z,120.87
2018-12-21T04:38:10.579Z,120.05
2018-12-21T04:38:41.722Z,115.75
2018-12-21T04:39:12.933Z,122.02
2018-12-21T04:39:44.041Z,113.12
2018-12-21T04:40:15.720Z,122.35
2018-12-21T04:40:46.913Z,111.77
2018-12-21T04:41:18.074Z,121.35
2018-12-21T04:41:49.257Z,114.30
2018-12-21T04:42:20.393Z,118.57
2018-12-21T04:42:51.534Z,121.30
2018-12-21T04:43:22.633Z,110.57
2018-12-21T04:43:53.736Z,111.32
2018-12-21T04:44:24.873Z,112.25
2018-12-21T04:44:56.154Z,117.30
2018-12-21T04:45:27.355Z,113.80
2018-12-21T04:45:58.519Z,116.40
2018-12-21T04:46:29.623Z,114.52
2018-12-21T04:47:00.726Z,109.07
2018-12-21T04:47:31.883Z,116.33
2018-12-21T04:48:02.993Z,115.37
2018-12-21T04:48:36.158Z,120.87
2018-12-21T04:49:07.275Z,116.22
2018-12-21T04:49:38.397Z,115.50
2018-12-21T04:50:09.509Z,114.77
2018-12-21T04:50:40.666Z,118.60
2018-12-21T04:51:11.772Z,124.55
2018-12-21T04:51:42.880Z,120.08
2018-12-21T04:52:13.988Z,123.82
2018-12-21T04:52:45.087Z,128.65
2018-12-21T04:53:16.773Z,120.45
2018-12-21T04:53:48.664Z,131.00
2018-12-21T04:54:19.778Z,130.55
2018-12-21T04:54:50.902Z,125.27
2018-12-21T04:55:22.045Z,123.47
2018-12-21T04:55:53.144Z,127.15
2018-12-21T04:56:24.256Z,123.20
2018-12-21T04:56:55.371Z,122.42
2018-12-21T04:57:26.530Z,127.72
2018-12-21T04:57:57.648Z,118.28
2018-12-21T04:58:28.762Z,128.53
2018-12-21T04:58:59.870Z,136.50
2018-12-21T04:59:30.990Z,127.27
2018-12-21T05:00:02.231Z,133.95
2018-12-21T05:00:34.897Z,127.32
2018-12-21T05:01:06.011Z,133.43
2018-12-21T05:01:37.157Z,130.52
2018-12-21T05:02:08.333Z,143.52
2018-12-21T05:02:39.443Z,136.22
2018-12-21T05:03:10.575Z,135.32
2018-12-21T05:03:41.700Z,138.52
2018-12-21T05:04:19.700Z,131.70
2018-12-21T05:04:45.955Z,140.68
2018-12-21T05:05:17.076Z,137.95
2018-12-21T05:05:48.212Z,133.52
2018-12-21T05:06:19.338Z,139.30
2018-12-21T05:06:50.547Z,135.93
2018-12-21T05:07:21.692Z,132.03
2018-12-21T05:07:52.852Z,135.50
2018-12-21T05:08:23.966Z,134.80
2018-12-21T05:08:55.074Z,131.57
2018-12-21T05:09:26.183Z,138.45
2018-12-21T05:09:57.288Z,124.53
2018-12-21T05:10:28.394Z,136.43
2018-12-21T05:10:59.504Z,132.20
2018-12-21T05:11:30.613Z,131.18
2018-12-21T05:12:01.763Z,141.73
2018-12-21T05:12:32.868Z,135.85
2018-12-21T05:13:03.974Z,131.35
2018-12-21T05:13:35.077Z,134.25
2018-12-21T05:14:07.897Z,142.22
2018-12-21T05:14:39.351Z,133.57
2018-12-21T05:15:10.462Z,128.23
2018-12-21T05:15:41.567Z,145.82
2018-12-21T05:16:12.691Z,134.03
2018-12-21T05:16:43.799Z,132.60
2018-12-21T05:17:14.972Z,139.22
2018-12-21T05:17:46.072Z,130.55
2018-12-21T05:18:17.211Z,134.63
2018-12-21T05:18:48.348Z,141.70
2018-12-21T05:19:19.460Z,142.80
2018-12-21T05:19:50.714Z,130.80
2018-12-21T05:20:21.833Z,135.93
2018-12-21T05:20:52.953Z,135.32
2018-12-21T05:21:24.061Z,127.65
2018-12-21T05:21:55.183Z,129.15
2018-12-21T05:22:26.786Z,132.72
2018-12-21T05:22:57.945Z,134.12
2018-12-21T05:23:29.052Z,133.47
2018-12-21T05:24:00.174Z,132.07
2018-12-21T05:24:31.289Z,125.25
2018-12-21T05:25:02.387Z,135.82
2018-12-21T05:25:33.493Z,131.15
2018-12-21T05:26:04.673Z,125.18
2018-12-21T05:26:35.808Z,125.90
2018-12-21T05:27:06.921Z,136.70
2018-12-21T05:27:38.033Z,137.07
2018-12-21T05:28:09.142Z,132.52
2018-12-21T05:28:40.249Z,134.87
2018-12-21T05:29:11.377Z,134.95
2018-12-21T05:29:43.980Z,135.80
2018-12-21T05:30:15.188Z,144.00
2018-12-21T05:30:46.349Z,139.68
2018-12-21T05:31:17.481Z,136.37
2018-12-21T05:31:48.617Z,132.27
2018-12-21T05:32:19.767Z,132.32
2018-12-21T05:32:50.893Z,133.80
2018-12-21T05:33:22.003Z,141.05
2018-12-21T05:33:53.112Z,133.75
2018-12-21T05:34:24.221Z,134.52
2018-12-21T05:34:55.329Z,138.03
2018-12-21T05:35:26.481Z,133.97
2018-12-21T05:35:57.618Z,136.12
2018-12-21T05:36:28.733Z,139.20
2018-12-21T05:36:59.832Z,128.23
2018-12-21T05:37:30.943Z,138.43
2018-12-21T05:38:02.062Z,124.20
2018-12-21T05:38:33.178Z,131.55
2018-12-21T05:39:06.167Z,139.92
2018-12-21T05:39:37.321Z,140.60
2018-12-21T05:40:08.457Z,150.07
2018-12-21T05:40:40.914Z,139.28
2018-12-21T05:41:12.052Z,138.30
2018-12-21T05:41:43.162Z,147.35
2018-12-21T05:42:14.263Z,141.22
2018-12-21T05:42:45.386Z,137.65
2018-12-21T05:43:16.497Z,148.93
2018-12-21T05:43:47.636Z,141.75
2018-12-21T05:44:18.772Z,147.02
2018-12-21T05:44:50.016Z,136.92
2018-12-21T05:45:21.134Z,148.07
2018-12-21T05:45:52.258Z,147.02
2018-12-21T05:46:23.461Z,144.77
2018-12-21T05:46:56.375Z,144.53
2018-12-21T05:47:27.558Z,139.45
2018-12-21T05:47:58.673Z,148.32
2018-12-21T05:48:29.792Z,148.70
2018-12-21T05:49:00.893Z,158.72
2018-12-21T05:49:32.010Z,152.43
2018-12-21T05:50:03.134Z,159.45
2018-12-21T05:50:34.253Z,156.47
2018-12-21T05:51:05.380Z,150.80
2018-12-21T05:51:36.534Z,151.50
2018-12-21T05:52:07.648Z,151.53
2018-12-21T05:52:38.801Z,151.63
2018-12-21T05:53:10.607Z,148.97
2018-12-21T05:53:41.715Z,140.65
2018-12-21T05:54:13.978Z,149.15
2018-12-21T05:54:45.076Z,147.90
2018-12-21T05:55:16.183Z,147.47
2018-12-21T05:55:47.316Z,151.40
2018-12-21T05:56:18.423Z,137.90
2018-12-21T05:56:49.549Z,147.28
2018-12-21T05:57:20.648Z,142.13
2018-12-21T05:57:52.686Z,139.90
2018-12-21T05:58:23.838Z,138.60
2018-12-21T05:58:54.955Z,149.53
2018-12-21T05:59:26.072Z,153.40
2018-12-21T05:59:57.203Z,155.20
2018-12-21T06:00:28.329Z,164.22
2018-12-21T06:00:59.441Z,159.57
2018-12-21T06:01:30.562Z,144.47
2018-12-21T06:02:01.716Z,169.82
2018-12-21T06:02:32.820Z,162.82
2018-12-21T06:03:06.495Z,163.65
2018-12-21T06:03:44.922Z,160.43
2018-12-21T06:04:18.245Z,166.73
2018-12-21T06:04:49.411Z,155.57
2018-12-21T06:05:20.578Z,173.87
2018-12-21T06:05:51.788Z,168.50
2018-12-21T06:06:22.928Z,158.32
2018-12-21T06:06:54.044Z,162.70
2018-12-21T06:07:25.152Z,170.68
2018-12-21T06:07:56.999Z,164.62
2018-12-21T06:08:28.530Z,155.90
2018-12-21T06:08:59.833Z,147.05
2018-12-21T06:09:31.013Z,164.37
2018-12-21T06:10:02.145Z,163.20
2018-12-21T06:10:33.333Z,161.00
2018-12-21T06:11:04.452Z,175.65
2018-12-21T06:11:35.560Z,164.70
2018-12-21T06:12:06.679Z,157.22
2018-12-21T06:12:37.833Z,162.65
2018-12-21T06:13:08.986Z,167.18
2018-12-21T06:13:40.193Z,163.43
2018-12-21T06:14:11.316Z,154.80
2018-12-21T06:14:42.459Z,163.43
2018-12-21T06:15:13.560Z,161.32
2018-12-21T06:15:44.670Z,159.32
2018-12-21T06:16:15.809Z,156.78
2018-12-21T06:16:46.929Z,166.20
2018-12-21T06:17:18.035Z,152.80
2018-12-21T06:17:49.164Z,154.45
2018-12-21T06:18:20.289Z,158.82
2018-12-21T06:18:51.419Z,152.00
2018-12-21T06:19:22.523Z,169.07
2018-12-21T06:19:53.677Z,162.10
2018-12-21T06:20:24.781Z,160.70
2018-12-21T06:20:55.888Z,165.52
2018-12-21T06:21:27.001Z,175.85
2018-12-21T06:21:58.097Z,162.40
2018-12-21T06:22:29.216Z,163.30
2018-12-21T06:23:00.325Z,153.95
2018-12-21T06:23:31.438Z,162.72
2018-12-21T06:24:02.550Z,169.72
2018-12-21T06:24:33.691Z,165.77
2018-12-21T06:25:05.481Z,161.45
2018-12-21T06:25:36.588Z,156.37
2018-12-21T06:26:07.694Z,157.12
2018-12-21T06:26:40.683Z,153.30
2018-12-21T06:27:12.015Z,156.02
2018-12-21T06:27:43.138Z,148.10
2018-12-21T06:28:14.250Z,154.38
2018-12-21T06:28:45.363Z,154.53
2018-12-21T06:29:16.507Z,143.97
2018-12-21T06:29:47.648Z,148.32
2018-12-21T06:30:18.753Z,157.03
2018-12-21T06:30:49.862Z,158.22
2018-12-21T06:31:21.002Z,141.60
2018-12-21T06:31:52.152Z,153.10
2018-12-21T06:32:23.302Z,153.02
2018-12-21T06:32:54.409Z,166.40
2018-12-21T06:33:25.540Z,157.70
2018-12-21T06:33:56.672Z,161.55
2018-12-21T06:34:27.777Z,156.80
2018-12-21T06:34:58.906Z,166.32
2018-12-21T06:35:30.057Z,157.50
2018-12-21T06:36:01.163Z,169.60
2018-12-21T06:36:32.291Z,159.95